Time;durP1;ratioP1;P1;durP2;ratioP2;P2;SDS_P1;SDS_P2;PMS_P1;PMS_P2;Temp;Humidity;BMP_temperature;BMP_pressure;BME280_temperature;BME280_humidity;BME280_pressure;Samples;Min_cycle;Max_cycle;Signal;HPM_P1;HPM_P2
2023/12/13 00:01:59;;;;;;;1.50;1.20;;;9.80;98.00;;;;;;5011875;28;20487;-88
2023/12/13 00:04:26;;;;;;;1.90;1.33;;;9.80;98.00;;;;;;5011994;28;20443;-88
2023/12/13 00:06:53;;;;;;;1.30;1.20;;;9.60;98.00;;;;;;5012251;28;20462;-88
2023/12/13 00:09:20;;;;;;;1.40;1.20;;;9.50;98.00;;;;;;5011817;28;20448;-89
2023/12/13 00:11:49;;;;;;;1.30;1.20;;;9.40;98.00;;;;;;5011997;28;20586;-88
2023/12/13 00:14:17;;;;;;;3.10;1.33;;;9.30;98.00;;;;;;5012495;28;20881;-88
2023/12/13 00:16:44;;;;;;;1.47;1.40;;;9.30;98.00;;;;;;5012330;28;20953;-89
2023/12/13 00:19:11;;;;;;;2.30;1.27;;;9.50;98.00;;;;;;5011915;28;20974;-89
2023/12/13 00:21:38;;;;;;;3.17;1.50;;;9.60;98.00;;;;;;5016029;28;20479;-89
2023/12/13 00:24:06;;;;;;;1.40;1.30;;;9.80;98.00;;;;;;5015859;28;20476;-89
2023/12/13 00:26:33;;;;;;;1.20;1.10;;;9.70;98.00;;;;;;5016145;28;20999;-89
2023/12/13 00:29:01;;;;;;;1.30;1.30;;;9.60;98.00;;;;;;5014809;28;20462;-88
2023/12/13 00:31:28;;;;;;;1.30;1.30;;;9.50;98.00;;;;;;5014985;28;20499;-88
2023/12/13 00:33:56;;;;;;;1.40;1.20;;;9.40;98.00;;;;;;5015169;28;20442;-89
2023/12/13 00:36:23;;;;;;;2.00;1.40;;;9.30;98.00;;;;;;5015356;28;20461;-89
2023/12/13 00:38:50;;;;;;;2.33;1.30;;;9.20;98.00;;;;;;5014610;28;20462;-88
2023/12/13 00:41:17;;;;;;;2.30;1.70;;;9.30;98.00;;;;;;5015345;28;20523;-88
2023/12/13 00:43:44;;;;;;;2.03;1.57;;;9.20;98.00;;;;;;5015743;28;20459;-89
2023/12/13 00:46:19;;;;;;;1.33;1.20;;;9.20;98.00;;;;;;5015117;28;20468;-89
2023/12/13 00:48:47;;;;;;;3.00;1.40;;;9.20;98.00;;;;;;5014420;28;20463;-88
2023/12/13 00:51:17;;;;;;;1.60;1.30;;;9.10;98.00;;;;;;5015259;28;20996;-89
2023/12/13 00:53:45;;;;;;;1.80;1.63;;;9.20;98.00;;;;;;5015211;28;20894;-89
2023/12/13 00:56:12;;;;;;;2.57;1.67;;;9.10;98.00;;;;;;5015623;28;20471;-89
2023/12/13 00:58:39;;;;;;;5.40;2.10;;;9.00;98.00;;;;;;5014837;28;20546;-88
2023/12/13 01:01:06;;;;;;;9.17;4.00;;;8.80;98.00;;;;;;5014943;28;20479;-89
2023/12/13 01:03:35;;;;;;;9.87;3.30;;;8.70;98.00;;;;;;5015265;28;20881;-89
2023/12/13 01:06:02;;;;;;;5.60;2.20;;;8.60;98.00;;;;;;5014811;28;20456;-89
2023/12/13 01:08:29;;;;;;;2.30;1.70;;;8.60;98.00;;;;;;5014907;28;20448;-88
2023/12/13 01:10:56;;;;;;;2.73;2.07;;;8.60;98.00;;;;;;5014748;28;20487;-88
2023/12/13 01:13:23;;;;;;;2.87;1.80;;;8.60;98.00;;;;;;5014751;28;20440;-88
2023/12/13 01:15:50;;;;;;;2.57;1.53;;;8.60;98.00;;;;;;5014832;28;20445;-89
2023/12/13 01:18:17;;;;;;;2.50;1.53;;;8.50;98.00;;;;;;5014631;28;20474;-88
2023/12/13 01:20:45;;;;;;;3.53;1.80;;;8.50;98.00;;;;;;5014074;28;20475;-89
2023/12/13 01:23:12;;;;;;;2.13;1.60;;;8.50;98.00;;;;;;5014607;28;20460;-89
2023/12/13 01:25:39;;;;;;;1.50;1.43;;;8.40;98.00;;;;;;5015056;28;20472;-88
2023/12/13 01:28:07;;;;;;;1.40;1.20;;;8.30;98.00;;;;;;5014419;28;20463;-88
2023/12/13 01:30:34;;;;;;;2.67;1.30;;;8.40;98.00;;;;;;5013737;28;20525;-89
2023/12/13 01:33:01;;;;;;;1.40;1.13;;;8.50;98.00;;;;;;5014461;28;21039;-88
2023/12/13 01:35:28;;;;;;;2.47;1.27;;;8.60;98.00;;;;;;5014505;28;20468;-89
2023/12/13 01:37:56;;;;;;;1.67;1.17;;;8.60;98.00;;;;;;5014382;28;20869;-89
2023/12/13 01:40:23;;;;;;;1.30;1.20;;;8.70;98.00;;;;;;5014445;28;20482;-89
2023/12/13 01:42:50;;;;;;;1.40;1.30;;;8.70;98.00;;;;;;5014531;28;20460;-88
2023/12/13 01:45:17;;;;;;;3.03;1.53;;;8.70;98.00;;;;;;5014199;28;20459;-88
2023/12/13 01:47:45;;;;;;;1.90;1.20;;;8.70;98.00;;;;;;5014390;28;20478;-89
2023/12/13 01:50:12;;;;;;;2.23;1.30;;;8.80;98.00;;;;;;5014016;28;20451;-89
2023/12/13 01:52:39;;;;;;;1.20;1.10;;;8.80;98.00;;;;;;5013646;28;20541;-88
2023/12/13 01:55:10;;;;;;;1.43;1.37;;;8.80;98.00;;;;;;5014393;28;20676;-89
2023/12/13 01:57:38;;;;;;;4.03;1.50;;;8.80;98.00;;;;;;5021169;28;20444;-87
2023/12/13 02:00:07;;;;;;;2.10;1.30;;;9.00;98.00;;;;;;5037136;28;20456;-86
2023/12/13 02:02:34;;;;;;;1.33;1.20;;;8.90;98.00;;;;;;5026386;28;20468;-88
2023/12/13 02:05:02;;;;;;;3.53;1.30;;;8.90;98.00;;;;;;5015474;28;20507;-89
2023/12/13 02:07:30;;;;;;;1.10;1.00;;;8.90;98.00;;;;;;5015284;28;20462;-89
2023/12/13 02:09:57;;;;;;;1.43;1.10;;;9.00;98.00;;;;;;5014280;28;20459;-88
2023/12/13 02:12:26;;;;;;;2.60;1.10;;;9.00;98.00;;;;;;5014251;28;21008;-88
2023/12/13 02:14:53;;;;;;;1.93;1.30;;;9.00;98.00;;;;;;5013445;28;20467;-89
2023/12/13 02:17:20;;;;;;;3.07;1.30;;;9.00;98.00;;;;;;5013941;28;20444;-89
2023/12/13 02:19:47;;;;;;;1.33;1.20;;;9.00;98.00;;;;;;5010813;28;20449;-88
2023/12/13 02:22:16;;;;;;;1.77;1.33;;;9.10;98.00;;;;;;5013850;28;20490;-89
2023/12/13 02:24:46;;;;;;;1.30;1.10;;;9.10;98.00;;;;;;5013183;28;20466;-88
2023/12/13 02:27:13;;;;;;;1.60;1.20;;;9.10;98.00;;;;;;5013317;28;20452;-88
2023/12/13 02:29:41;;;;;;;1.50;1.20;;;9.10;98.00;;;;;;5012574;28;20494;-88
2023/12/13 02:32:08;;;;;;;1.30;1.10;;;9.10;98.00;;;;;;5013535;28;20499;-89
2023/12/13 02:34:42;;;;;;;3.47;1.20;;;9.10;98.00;;;;;;5013461;28;20455;-88
2023/12/13 02:37:09;;;;;;;1.80;1.40;;;9.10;98.00;;;;;;5013225;28;20466;-88
2023/12/13 02:39:37;;;;;;;1.50;1.20;;;9.20;98.00;;;;;;5012826;28;20538;-89
2023/12/13 02:42:05;;;;;;;1.43;1.20;;;9.20;98.00;;;;;;5012962;28;20513;-88
2023/12/13 02:44:33;;;;;;;3.67;1.47;;;9.20;98.00;;;;;;5013328;28;20497;-88
2023/12/13 02:47:01;;;;;;;4.40;1.50;;;9.20;98.00;;;;;;5013417;28;21142;-89
2023/12/13 02:49:28;;;;;;;1.50;1.13;;;9.20;98.00;;;;;;5012431;28;20474;-89
2023/12/13 02:51:55;;;;;;;1.40;1.30;;;9.10;98.00;;;;;;5013100;28;20484;-88
2023/12/13 02:57:10;;;;;;;2.33;1.30;;;9.00;98.00;;;;;;5013100;28;20462;-88
2023/12/13 02:59:38;;;;;;;1.50;1.20;;;8.90;98.00;;;;;;4994313;28;20464;-89
2023/12/13 03:02:05;;;;;;;1.70;1.30;;;8.60;98.00;;;;;;5012591;28;20471;-88
2023/12/13 03:04:32;;;;;;;2.23;1.30;;;8.40;98.00;;;;;;5013347;28;20825;-89
2023/12/13 03:06:59;;;;;;;2.37;1.40;;;8.30;98.00;;;;;;5012652;28;20459;-87
2023/12/13 03:09:26;;;;;;;1.70;1.20;;;8.20;98.00;;;;;;5012192;28;20459;-89
2023/12/13 03:11:53;;;;;;;2.43;1.20;;;8.20;98.00;;;;;;5012559;28;20494;-88
2023/12/13 03:14:31;;;;;;;2.70;1.50;;;8.20;98.00;;;;;;5012965;28;20464;-88
2023/12/13 03:16:58;;;;;;;2.07;1.20;;;8.20;98.00;;;;;;5012775;28;20545;-88
2023/12/13 03:19:25;;;;;;;2.50;1.30;;;8.30;98.00;;;;;;5012111;28;20448;-89
2023/12/13 03:21:52;;;;;;;2.83;1.30;;;8.20;98.00;;;;;;5013112;28;20544;-88
2023/12/13 03:24:21;;;;;;;1.30;1.20;;;8.20;98.00;;;;;;5012152;28;20466;-89
2023/12/13 03:26:49;;;;;;;3.33;1.20;;;8.30;98.00;;;;;;5012055;28;20494;-88
2023/12/13 03:29:17;;;;;;;4.17;1.43;;;8.40;98.00;;;;;;5012272;28;20481;-89
2023/12/13 03:31:46;;;;;;;1.93;1.20;;;8.50;98.00;;;;;;5012369;28;20581;-89
2023/12/13 03:34:14;;;;;;;1.40;1.07;;;8.60;98.00;;;;;;5012603;28;20477;-88
2023/12/13 03:36:41;;;;;;;1.67;1.27;;;8.70;98.00;;;;;;5012755;28;20456;-88
2023/12/13 03:39:08;;;;;;;1.83;1.20;;;8.80;98.00;;;;;;5012037;28;20461;-88
2023/12/13 03:41:35;;;;;;;1.87;1.13;;;8.90;98.00;;;;;;5012600;28;20558;-88
2023/12/13 03:44:06;;;;;;;1.70;1.30;;;9.00;98.00;;;;;;5012456;28;20519;-88
2023/12/13 03:46:35;;;;;;;1.60;1.30;;;9.00;98.00;;;;;;5012979;28;20459;-88
2023/12/13 03:49:03;;;;;;;1.30;1.10;;;8.90;98.00;;;;;;5011277;28;21086;-88
2023/12/13 03:51:31;;;;;;;2.73;1.30;;;8.80;98.00;;;;;;5012581;28;20550;-89
2023/12/13 03:53:57;;;;;;;3.10;1.30;;;8.80;98.00;;;;;;5012248;28;20450;-87
2023/12/13 03:56:29;;;;;;;3.33;1.60;;;8.80;98.00;;;;;;5016587;28;20957;-88
2023/12/13 03:58:56;;;;;;;2.07;1.20;;;9.00;98.00;;;;;;5015458;28;20529;-88
2023/12/13 04:01:23;;;;;;;1.30;1.20;;;9.00;98.00;;;;;;5015943;28;20900;-89
2023/12/13 04:03:50;;;;;;;2.00;1.30;;;8.90;98.00;;;;;;5016757;28;20456;-88
2023/12/13 04:06:18;;;;;;;2.43;1.63;;;9.00;98.00;;;;;;5015803;28;20521;-88
2023/12/13 04:08:45;;;;;;;2.00;1.33;;;8.90;98.00;;;;;;5015483;28;20979;-89
2023/12/13 04:11:12;;;;;;;3.33;1.30;;;8.90;98.00;;;;;;5016031;28;20479;-88
2023/12/13 04:13:39;;;;;;;1.83;1.40;;;8.90;98.00;;;;;;5015882;28;20509;-89
2023/12/13 04:16:07;;;;;;;2.27;1.30;;;8.80;98.00;;;;;;5015843;28;20891;-88
2023/12/13 04:18:34;;;;;;;2.03;1.37;;;8.80;98.00;;;;;;5015005;28;20464;-88
2023/12/13 04:21:01;;;;;;;1.30;1.20;;;8.70;98.00;;;;;;5015984;28;20857;-88
2023/12/13 04:23:29;;;;;;;1.83;1.20;;;8.60;98.00;;;;;;5015861;28;20451;-87
2023/12/13 04:28:32;;;;;;;3.83;1.40;;;8.50;98.00;;;;;;5205973;22;20529;-73
2023/12/13 04:30:59;;;;;;;5.63;1.20;;;8.40;98.00;;;;;;5014678;28;20466;-73
2023/12/13 04:33:26;;;;;;;1.63;1.23;;;8.30;98.00;;;;;;5014474;28;20829;-73
2023/12/13 04:35:58;;;;;;;5.83;1.23;;;8.30;98.00;;;;;;5014393;28;20962;-73
2023/12/13 04:38:25;;;;;;;1.23;1.20;;;8.30;98.00;;;;;;5014452;28;20498;-73
2023/12/13 04:40:54;;;;;;;1.30;1.20;;;8.20;98.00;;;;;;5014169;28;20952;-73
2023/12/13 04:43:23;;;;;;;1.30;1.20;;;8.10;98.00;;;;;;5014212;28;20491;-73
2023/12/13 04:45:51;;;;;;;2.40;1.10;;;8.10;98.00;;;;;;5014022;28;20448;-73
2023/12/13 04:48:18;;;;;;;1.30;1.10;;;8.10;98.00;;;;;;5014106;28;20526;-73
2023/12/13 04:50:45;;;;;;;2.07;1.30;;;8.10;98.00;;;;;;5013966;28;20823;-73
2023/12/13 04:53:12;;;;;;;1.17;1.10;;;8.00;98.00;;;;;;5014013;28;20835;-73
2023/12/13 04:55:39;;;;;;;1.40;1.20;;;8.00;98.00;;;;;;5014069;28;20471;-74
2023/12/13 04:58:07;;;;;;;2.87;1.40;;;8.00;98.00;;;;;;5014037;28;20878;-72
2023/12/13 05:00:35;;;;;;;1.77;1.30;;;7.90;98.00;;;;;;5013911;28;20456;-73
2023/12/13 05:03:02;;;;;;;3.70;1.60;;;8.00;98.00;;;;;;5013945;28;20467;-73
2023/12/13 05:05:29;;;;;;;1.80;1.53;;;7.90;98.00;;;;;;5013333;28;20986;-73
2023/12/13 05:07:55;;;;;;;4.53;2.40;;;8.00;98.00;;;;;;5012737;28;20504;-73
2023/12/13 05:10:26;;;;;;;3.87;1.60;;;7.90;98.00;;;;;;5013646;28;20452;-73
2023/12/13 05:12:53;;;;;;;2.93;1.50;;;7.80;98.00;;;;;;5013379;28;20579;-73
2023/12/13 05:15:21;;;;;;;3.57;1.93;;;7.90;98.00;;;;;;5013590;28;20458;-73
2023/12/13 05:17:48;;;;;;;2.93;1.53;;;7.90;98.00;;;;;;5013372;28;20451;-73
2023/12/13 05:20:15;;;;;;;2.13;1.43;;;7.90;98.00;;;;;;5014169;28;20448;-73
2023/12/13 05:22:42;;;;;;;4.17;1.70;;;7.90;98.00;;;;;;5060035;22;20485;-87
2023/12/13 05:25:09;;;;;;;4.90;2.10;;;7.80;98.00;;;;;;5017039;28;20801;-87
2023/12/13 05:27:38;;;;;;;2.50;1.70;;;7.70;98.00;;;;;;5014941;28;20535;-88
2023/12/13 05:30:07;;;;;;;2.97;1.77;;;7.70;98.00;;;;;;5014327;28;20452;-86
2023/12/13 05:32:35;;;;;;;1.50;1.10;;;7.60;98.00;;;;;;5014443;28;20550;-88
2023/12/13 05:35:03;;;;;;;1.43;1.30;;;7.60;98.00;;;;;;5015330;28;20448;-87
2023/12/13 05:37:30;;;;;;;3.77;1.33;;;7.60;98.00;;;;;;5016213;28;20542;-87
2023/12/13 05:39:57;;;;;;;1.40;1.30;;;7.60;98.00;;;;;;5015649;28;20517;-88
2023/12/13 05:42:27;;;;;;;1.83;1.40;;;7.70;98.00;;;;;;5016391;28;21014;-87
2023/12/13 05:44:54;;;;;;;1.70;1.20;;;7.70;98.00;;;;;;5016310;28;20467;-87
2023/12/13 05:47:24;;;;;;;1.40;1.30;;;7.70;98.00;;;;;;5015611;28;20478;-88
2023/12/13 05:49:53;;;;;;;3.40;1.60;;;7.70;98.00;;;;;;5015009;28;20460;-87
2023/12/13 05:52:20;;;;;;;3.30;1.50;;;7.70;98.00;;;;;;5015490;28;20463;-87
2023/12/13 05:54:47;;;;;;;1.40;1.30;;;7.80;98.00;;;;;;5015938;28;20462;-87
2023/12/13 05:57:14;;;;;;;3.00;1.40;;;7.80;98.00;;;;;;5016271;28;20513;-87
2023/12/13 05:59:42;;;;;;;3.10;1.50;;;7.70;98.00;;;;;;5014993;28;20878;-87
2023/12/13 06:02:09;;;;;;;4.37;1.67;;;7.60;98.00;;;;;;5015700;28;21012;-87
2023/12/13 06:04:36;;;;;;;2.40;1.40;;;7.70;98.00;;;;;;5015531;28;20480;-87
2023/12/13 06:07:04;;;;;;;1.83;1.37;;;7.60;98.00;;;;;;5015272;28;20491;-88
2023/12/13 06:09:32;;;;;;;2.07;1.30;;;7.60;98.00;;;;;;5014643;28;20467;-88
2023/12/13 06:11:59;;;;;;;4.13;1.70;;;7.70;98.00;;;;;;5015975;28;20469;-87
2023/12/13 06:14:28;;;;;;;2.07;1.60;;;7.80;98.00;;;;;;5015334;28;20837;-87
2023/12/13 06:16:55;;;;;;;1.50;1.43;;;7.70;98.00;;;;;;5015030;28;20984;-87
2023/12/13 06:19:24;;;;;;;2.23;1.53;;;7.60;98.00;;;;;;5014261;28;20881;-88
2023/12/13 06:21:51;;;;;;;2.37;1.70;;;7.60;98.00;;;;;;5014355;28;20471;-87
2023/12/13 06:24:20;;;;;;;2.70;1.50;;;7.50;98.00;;;;;;5015318;28;20467;-86
2023/12/13 06:26:47;;;;;;;3.43;1.70;;;7.40;98.00;;;;;;5014438;28;20489;-86
2023/12/13 06:29:14;;;;;;;1.93;1.57;;;7.50;98.00;;;;;;5013100;28;20520;-88
2023/12/13 06:31:41;;;;;;;2.60;1.60;;;7.50;98.00;;;;;;5013709;28;20496;-87
2023/12/13 06:34:08;;;;;;;2.50;1.40;;;7.50;98.00;;;;;;5013846;28;21107;-87
2023/12/13 06:36:35;;;;;;;1.50;1.50;;;7.50;98.00;;;;;;5013585;28;21009;-87
2023/12/13 06:39:04;;;;;;;3.13;1.80;;;7.40;98.00;;;;;;5012669;28;20456;-87
2023/12/13 06:41:32;;;;;;;1.30;1.30;;;7.50;98.00;;;;;;5013514;28;20467;-87
2023/12/13 06:44:00;;;;;;;2.93;1.70;;;7.50;98.00;;;;;;5013691;28;20462;-88
2023/12/13 06:46:27;;;;;;;1.70;1.40;;;7.50;98.00;;;;;;5013549;28;20555;-86
2023/12/13 06:48:55;;;;;;;2.23;1.40;;;7.60;98.00;;;;;;5012904;28;20881;-87
2023/12/13 06:51:22;;;;;;;3.20;1.50;;;7.60;98.00;;;;;;5014041;28;20509;-88
2023/12/13 06:53:49;;;;;;;1.93;1.40;;;7.60;98.00;;;;;;5013239;28;20485;-88
2023/12/13 06:56:17;;;;;;;3.33;1.60;;;7.50;98.00;;;;;;5013032;28;20982;-89
2023/12/13 06:58:46;;;;;;;2.27;1.83;;;7.60;98.00;;;;;;5012764;28;20508;-89
2023/12/13 07:01:13;;;;;;;2.63;1.87;;;7.50;98.00;;;;;;5013610;28;20952;-87
2023/12/13 07:03:41;;;;;;;2.23;1.90;;;7.50;98.00;;;;;;5015779;28;20469;-87
2023/12/13 07:06:08;;;;;;;2.23;1.80;;;7.60;98.00;;;;;;5015598;28;20474;-87
2023/12/13 07:08:35;;;;;;;2.50;2.07;;;7.70;98.00;;;;;;5013665;28;20475;-88
2023/12/13 07:11:03;;;;;;;1.80;1.77;;;7.70;98.00;;;;;;5015678;28;20458;-87
2023/12/13 07:13:31;;;;;;;3.40;2.13;;;7.60;98.00;;;;;;5016429;28;20579;-87
2023/12/13 07:15:59;;;;;;;2.53;1.73;;;7.60;98.00;;;;;;5013359;28;20465;-88
2023/12/13 07:18:26;;;;;;;3.07;1.90;;;7.50;98.00;;;;;;5013453;28;20461;-87
2023/12/13 07:20:54;;;;;;;3.63;1.60;;;7.60;98.00;;;;;;5013298;28;20459;-87
2023/12/13 07:23:21;;;;;;;2.10;1.67;;;7.60;98.00;;;;;;5013181;28;20972;-87
2023/12/13 07:25:48;;;;;;;2.63;1.90;;;7.70;98.00;;;;;;5014816;28;20830;-87
2023/12/13 07:28:16;;;;;;;6.83;2.20;;;7.80;98.00;;;;;;5013725;28;20908;-87
2023/12/13 07:30:43;;;;;;;2.30;1.70;;;8.00;98.00;;;;;;5012921;28;20878;-86
2023/12/13 07:33:12;;;;;;;1.87;1.70;;;7.90;98.00;;;;;;5014106;28;20478;-86
2023/12/13 07:35:39;;;;;;;2.00;1.67;;;8.00;98.00;;;;;;5015076;28;21029;-86
2023/12/13 07:38:06;;;;;;;3.30;1.80;;;7.90;98.00;;;;;;5014412;28;20490;-86
2023/12/13 07:40:33;;;;;;;2.40;1.70;;;7.80;98.00;;;;;;5014573;28;20870;-87
2023/12/13 07:43:00;;;;;;;7.27;2.90;;;7.90;98.00;;;;;;5018058;28;20459;-87
2023/12/13 07:45:27;;;;;;;4.00;2.80;;;8.00;98.00;;;;;;5024293;28;20434;-86
2023/12/13 07:47:54;;;;;;;4.90;2.47;;;7.90;98.00;;;;;;5036979;28;20490;-87
2023/12/13 07:50:23;;;;;;;7.73;2.60;;;7.90;98.00;;;;;;5028376;28;20519;-87
2023/12/13 07:52:50;;;;;;;11.67;4.67;;;8.00;98.00;;;;;;5032443;28;21152;-87
2023/12/13 07:55:19;;;;;;;7.03;3.73;;;8.00;98.00;;;;;;5034633;28;20965;-88
2023/12/13 07:57:46;;;;;;;4.20;2.57;;;7.90;98.00;;;;;;5034056;28;20486;-87
2023/12/13 08:00:14;;;;;;;3.47;2.70;;;8.10;98.00;;;;;;5034655;28;20456;-85
2023/12/13 08:02:41;;;;;;;4.37;2.40;;;8.20;98.00;;;;;;5033801;28;20458;-85
2023/12/13 08:05:09;;;;;;;4.33;2.40;;;8.20;98.00;;;;;;5034353;28;20471;-86
2023/12/13 08:07:37;;;;;;;4.47;2.33;;;8.30;98.00;;;;;;5035280;28;20536;-87
2023/12/13 08:10:06;;;;;;;3.97;2.50;;;8.20;98.00;;;;;;5033207;28;20865;-86
2023/12/13 08:12:34;;;;;;;5.40;2.60;;;8.30;98.00;;;;;;5032710;28;20499;-86
2023/12/13 08:15:01;;;;;;;4.17;2.50;;;8.40;98.00;;;;;;5032986;28;20565;-86
2023/12/13 08:17:29;;;;;;;4.10;2.23;;;8.30;98.00;;;;;;5013974;28;20566;-86
2023/12/13 08:19:56;;;;;;;4.50;2.40;;;8.30;98.00;;;;;;5013539;28;20457;-87
2023/12/13 08:22:23;;;;;;;3.63;2.60;;;8.20;98.00;;;;;;5014213;28;20471;-87
2023/12/13 08:24:51;;;;;;;4.90;2.60;;;8.10;98.00;;;;;;5013108;28;20463;-87
2023/12/13 08:27:18;;;;;;;5.87;2.77;;;8.10;98.00;;;;;;5013429;28;20501;-87
2023/12/13 08:29:49;;;;;;;3.20;2.53;;;8.10;98.00;;;;;;5014340;28;20463;-87
2023/12/13 08:32:16;;;;;;;4.60;3.00;;;8.10;98.00;;;;;;5013275;28;20557;-87
2023/12/13 08:34:44;;;;;;;3.93;2.37;;;8.40;98.00;;;;;;5012411;28;20487;-85
2023/12/13 08:37:11;;;;;;;6.07;2.43;;;8.70;98.00;;;;;;5012338;28;20484;-85
2023/12/13 08:39:38;;;;;;;3.90;2.50;;;9.40;98.00;;;;;;5011325;28;20956;-85
2023/12/13 08:42:09;;;;;;;8.30;3.30;;;10.30;98.00;;;;;;5015409;28;20456;-88
2023/12/13 08:44:36;;;;;;;8.20;3.77;;;10.80;98.00;;;;;;5015394;28;20449;-87
2023/12/13 08:47:03;;;;;;;9.50;3.93;;;10.70;98.00;;;;;;5015374;28;20550;-87
2023/12/13 08:49:30;;;;;;;8.83;3.90;;;10.40;98.00;;;;;;5015755;28;20449;-87
2023/12/13 08:51:57;;;;;;;7.40;3.50;;;10.10;98.00;;;;;;5015608;28;20963;-86
2023/12/13 08:54:24;;;;;;;6.20;3.57;;;9.80;98.00;;;;;;5015264;28;20892;-86
2023/12/13 08:56:51;;;;;;;6.90;3.80;;;9.50;98.00;;;;;;5015694;28;20498;-86
2023/12/13 08:59:20;;;;;;;10.97;3.40;;;9.30;98.00;;;;;;5013575;28;20522;-87
2023/12/13 09:01:47;;;;;;;5.20;2.57;;;9.10;98.00;;;;;;5014859;28;20867;-87
2023/12/13 09:04:14;;;;;;;5.70;2.80;;;9.10;98.00;;;;;;5015199;28;20530;-88
2023/12/13 09:06:41;;;;;;;5.10;2.73;;;9.20;98.00;;;;;;5014956;28;20491;-88
2023/12/13 09:09:11;;;;;;;6.17;2.90;;;9.10;98.00;;;;;;5014827;28;20503;-87
2023/12/13 09:11:38;;;;;;;5.97;3.37;;;9.40;98.00;;;;;;5015484;28;20873;-87
2023/12/13 09:14:05;;;;;;;4.47;2.83;;;9.10;98.00;;;;;;5014985;28;20489;-87
2023/12/13 09:16:33;;;;;;;5.37;2.70;;;9.00;98.00;;;;;;5014396;28;20489;-87
2023/12/13 09:19:00;;;;;;;6.10;2.97;;;8.90;98.00;;;;;;5014517;28;20902;-87
2023/12/13 09:21:27;;;;;;;4.40;2.77;;;8.90;98.00;;;;;;5014913;28;20466;-88
2023/12/13 09:23:54;;;;;;;4.87;2.77;;;8.90;98.00;;;;;;5015174;28;20566;-88
2023/12/13 09:26:22;;;;;;;4.10;2.57;;;8.90;98.00;;;;;;5015886;28;20671;-91
2023/12/13 09:28:49;;;;;;;10.47;2.70;;;8.90;98.00;;;;;;5016409;28;20523;-92
2023/12/13 09:31:16;;;;;;;6.00;3.33;;;9.00;98.00;;;;;;5015681;28;20491;-91
2023/12/13 09:33:47;;;;;;;4.90;2.83;;;9.20;98.00;;;;;;5016536;28;20883;-91
2023/12/13 09:36:14;;;;;;;9.50;4.00;;;9.20;98.00;;;;;;5016035;28;20444;-91
2023/12/13 09:38:41;;;;;;;9.53;4.30;;;9.20;98.00;;;;;;5016331;28;20463;-91
2023/12/13 09:41:09;;;;;;;6.70;3.93;;;9.10;98.00;;;;;;5016205;28;20452;-91
2023/12/13 09:43:39;;;;;;;8.10;4.50;;;9.20;98.00;;;;;;5015961;28;20459;-91
2023/12/13 09:46:07;;;;;;;7.77;3.80;;;9.40;98.00;;;;;;5016130;28;20451;-91
2023/12/13 09:48:36;;;;;;;5.27;3.30;;;9.30;98.00;;;;;;5015057;28;20456;-91
2023/12/13 09:51:06;;;;;;;5.90;3.30;;;9.30;98.00;;;;;;5016331;28;20945;-92
2023/12/13 09:53:36;;;;;;;5.77;3.07;;;9.20;98.00;;;;;;5015043;28;20500;-91
2023/12/13 09:56:03;;;;;;;4.80;2.83;;;9.10;98.00;;;;;;5016109;28;20440;-91
2023/12/13 09:58:30;;;;;;;5.03;2.70;;;9.10;98.00;;;;;;5015883;28;20861;-91
2023/12/13 10:00:57;;;;;;;7.60;3.20;;;9.10;98.00;;;;;;5015714;28;20460;-91
2023/12/13 10:03:25;;;;;;;5.90;3.40;;;9.10;98.00;;;;;;5015522;28;20436;-92
2023/12/13 10:05:56;;;;;;;7.20;3.23;;;9.20;98.00;;;;;;5014503;28;21030;-91
2023/12/13 10:08:25;;;;;;;6.70;3.90;;;9.40;98.00;;;;;;5015315;28;20435;-91
2023/12/13 10:10:52;;;;;;;14.00;4.53;;;9.30;98.00;;;;;;5016368;28;20490;-91
2023/12/13 10:13:23;;;;;;;8.40;3.73;;;9.30;98.00;;;;;;5017160;28;20475;-90
2023/12/13 10:15:51;;;;;;;6.40;3.20;;;9.20;98.00;;;;;;5037925;28;20484;-93
2023/12/13 10:18:18;;;;;;;5.60;3.40;;;9.30;98.00;;;;;;5038549;28;20491;-90
2023/12/13 10:20:47;;;;;;;6.20;3.20;;;9.40;98.00;;;;;;5007689;28;20440;-90
2023/12/13 10:23:26;;;;;;;6.43;3.57;;;9.60;98.00;;;;;;5014746;28;20530;-91
2023/12/13 10:25:57;;;;;;;9.07;4.47;;;9.80;98.00;;;;;;5015265;28;20475;-91
2023/12/13 10:28:34;;;;;;;12.17;4.80;;;9.90;98.00;;;;;;5015078;28;20467;-91
2023/12/13 10:31:05;;;;;;;8.53;4.00;;;9.80;98.00;;;;;;5015509;28;20467;-92
2023/12/13 10:33:32;;;;;;;9.83;4.03;;;9.70;98.00;;;;;;5015889;28;20459;-92
2023/12/13 10:36:01;;;;;;;5.00;3.40;;;9.60;98.00;;;;;;5014972;28;20455;-91
2023/12/13 10:38:32;;;;;;;10.10;3.10;;;9.60;98.00;;;;;;5015135;28;20460;-91
2023/12/13 10:41:00;;;;;;;8.20;3.53;;;9.60;98.00;;;;;;5014322;28;20510;-91
2023/12/13 10:43:29;;;;;;;7.40;4.03;;;9.60;98.00;;;;;;5014734;28;20468;-91
2023/12/13 10:46:00;;;;;;;8.33;4.00;;;9.50;98.00;;;;;;5014508;28;20849;-91
2023/12/13 10:48:33;;;;;;;7.30;3.90;;;9.60;98.00;;;;;;5015145;28;20844;-91
2023/12/13 10:51:02;;;;;;;5.90;3.50;;;9.50;98.00;;;;;;5014734;28;20492;-91
2023/12/13 10:53:33;;;;;;;5.57;3.20;;;9.50;98.00;;;;;;5014678;28;20467;-91
2023/12/13 10:56:01;;;;;;;8.30;3.57;;;9.50;98.00;;;;;;5014794;28;20513;-91
2023/12/13 10:58:30;;;;;;;6.40;3.50;;;9.60;98.00;;;;;;5014659;28;20511;-91
2023/12/13 11:01:08;;;;;;;6.43;3.50;;;9.60;98.00;;;;;;5015074;28;20468;-92
2023/12/13 11:03:47;;;;;;;5.43;3.23;;;9.80;98.00;;;;;;5015279;28;20447;-92
2023/12/13 11:06:27;;;;;;;5.50;3.07;;;10.00;98.00;;;;;;5015598;28;20844;-92
2023/12/13 11:09:08;;;;;;;7.50;2.73;;;10.30;98.00;;;;;;5015465;28;20448;-92
2023/12/13 11:11:35;;;;;;;7.40;3.00;;;10.60;98.00;;;;;;5015095;28;20457;-91
2023/12/13 11:14:02;;;;;;;5.97;3.17;;;10.70;98.00;;;;;;5013980;28;20479;-92
2023/12/13 11:16:37;;;;;;;5.10;2.57;;;10.80;98.00;;;;;;5014187;28;20475;-90
2023/12/13 11:19:04;;;;;;;3.90;2.57;;;10.90;98.00;;;;;;5013988;28;20439;-90
2023/12/13 11:21:33;;;;;;;2.93;2.50;;;11.10;98.00;;;;;;5013745;28;20467;-91
2023/12/13 11:24:12;;;;;;;6.03;2.57;;;11.00;98.00;;;;;;5013791;28;20467;-91
2023/12/13 11:26:42;;;;;;;3.63;2.20;;;11.20;98.00;;;;;;5014175;28;20483;-90
2023/12/13 11:29:17;;;;;;;4.57;2.47;;;11.30;98.00;;;;;;5014031;28;20451;-91
2023/12/13 11:31:54;;;;;;;5.67;2.90;;;11.50;98.00;;;;;;5013432;28;20447;-91
2023/12/13 11:34:32;;;;;;;5.03;2.50;;;11.60;98.00;;;;;;5013462;28;20441;-90
2023/12/13 11:37:01;;;;;;;5.40;2.73;;;11.70;98.00;;;;;;5013591;28;20516;-91
2023/12/13 11:39:31;;;;;;;3.03;1.80;;;11.60;98.00;;;;;;5013469;28;20494;-90
2023/12/13 11:42:00;;;;;;;7.30;2.63;;;11.50;98.00;;;;;;5013255;28;20469;-89
2023/12/13 11:44:30;;;;;;;4.70;2.40;;;11.50;98.00;;;;;;5013655;28;20472;-89
2023/12/13 11:46:59;;;;;;;5.33;2.33;;;11.60;98.00;;;;;;5013936;28;20900;-90
2023/12/13 11:49:26;;;;;;;4.97;2.17;;;11.60;98.00;;;;;;5013580;28;20454;-90
2023/12/13 11:51:53;;;;;;;3.67;2.13;;;11.40;98.00;;;;;;5013436;28;20457;-91
2023/12/13 11:54:21;;;;;;;2.87;2.00;;;11.30;98.00;;;;;;5013218;28;20524;-90
2023/12/13 11:56:49;;;;;;;5.63;2.33;;;11.30;98.00;;;;;;5013758;28;20492;-90
2023/12/13 11:59:20;;;;;;;3.03;2.00;;;11.20;98.00;;;;;;5013179;28;20469;-90
2023/12/13 12:01:48;;;;;;;6.30;2.43;;;11.20;98.00;;;;;;5013889;28;20473;-88
2023/12/13 12:04:18;;;;;;;3.77;2.27;;;11.10;98.00;;;;;;5014700;28;20789;-89
2023/12/13 12:06:47;;;;;;;2.93;2.03;;;11.30;98.00;;;;;;5012915;28;20486;-88
2023/12/13 12:09:15;;;;;;;4.60;2.47;;;11.50;98.00;;;;;;5012511;28;20546;-88
2023/12/13 12:11:42;;;;;;;3.47;2.33;;;11.70;98.00;;;;;;5013363;28;20442;-88
2023/12/13 12:14:11;;;;;;;3.00;2.30;;;11.80;98.00;;;;;;5013082;28;20516;-89
2023/12/13 12:16:39;;;;;;;3.23;2.40;;;11.80;98.00;;;;;;5015477;28;20475;-89
2023/12/13 12:19:07;;;;;;;3.40;2.30;;;11.90;98.00;;;;;;5016614;28;20463;-89
2023/12/13 12:21:36;;;;;;;3.80;2.27;;;11.90;98.00;;;;;;5017808;28;20834;-90
2023/12/13 12:24:04;;;;;;;5.87;2.47;;;12.10;98.00;;;;;;5019810;28;20452;-89
2023/12/13 12:26:31;;;;;;;3.10;2.10;;;12.20;98.00;;;;;;5016812;28;20498;-89
2023/12/13 12:28:58;;;;;;;2.20;1.90;;;12.20;98.00;;;;;;5016529;28;20471;-90
2023/12/13 12:31:26;;;;;;;3.50;1.97;;;12.50;98.00;;;;;;5016060;28;21042;-89
2023/12/13 12:33:55;;;;;;;3.93;2.40;;;12.90;98.00;;;;;;5016688;28;20499;-89
2023/12/13 12:36:22;;;;;;;4.00;2.57;;;13.10;98.00;;;;;;5016697;28;20569;-89
2023/12/13 12:38:49;;;;;;;2.80;2.10;;;13.20;98.00;;;;;;5015502;28;20448;-90
2023/12/13 12:41:17;;;;;;;5.43;2.17;;;13.30;98.00;;;;;;5022552;28;20441;-90
2023/12/13 12:43:46;;;;;;;3.90;2.20;;;13.40;98.00;;;;;;5039674;28;20460;-89
2023/12/13 12:46:15;;;;;;;3.60;2.37;;;13.40;98.00;;;;;;5040814;28;20502;-88
2023/12/13 12:48:44;;;;;;;5.93;2.60;;;13.50;98.00;;;;;;5229985;22;20494;-67
2023/12/13 12:51:11;;;;;;;5.60;2.30;;;13.10;98.00;;;;;;5014211;28;20444;-66
2023/12/13 12:53:38;;;;;;;4.67;2.30;;;12.90;98.00;;;;;;5014167;28;20829;-67
2023/12/13 12:56:05;;;;;;;3.97;2.20;;;12.70;98.00;;;;;;5013927;28;20457;-67
2023/12/13 12:58:32;;;;;;;3.80;2.30;;;12.60;98.00;;;;;;4996612;28;20518;-66
2023/12/13 13:01:00;;;;;;;3.60;2.10;;;12.70;98.00;;;;;;5013840;28;20531;-67
2023/12/13 13:03:27;;;;;;;3.10;2.27;;;12.70;98.00;;;;;;5014061;28;20950;-67
2023/12/13 13:05:55;;;;;;;3.90;2.30;;;12.80;98.00;;;;;;5013922;28;20589;-67